sensor_id;sensor_type;location;lat;lon;timestamp;pressure;altitude;pressure_sealevel;temperature;humidity
76478;BME280;65309;49.790;18.972;2023-02-01T00:02:23;96398.66;;;1.51;82.84
76478;BME280;65309;49.790;18.972;2023-02-01T00:07:26;96401.25;;;1.42;83.89
76478;BME280;65309;49.790;18.972;2023-02-01T00:12:28;96398.69;;;1.34;84.45
76478;BME280;65309;49.790;18.972;2023-02-01T00:17:30;96403.63;;;1.39;84.06
76478;BME280;65309;49.790;18.972;2023-02-01T00:22:34;96384.63;;;1.52;83.46
76478;BME280;65309;49.790;18.972;2023-02-01T00:27:36;96374.38;;;1.56;83.15
76478;BME280;65309;49.790;18.972;2023-02-01T00:32:38;96386.06;;;1.57;82.87
76478;BME280;65309;49.790;18.972;2023-02-01T00:37:41;96399.84;;;1.66;82.96
76478;BME280;65309;49.790;18.972;2023-02-01T00:42:43;96387.75;;;1.67;82.22
76478;BME280;65309;49.790;18.972;2023-02-01T00:47:45;96383.72;;;1.71;82.59
76478;BME280;65309;49.790;18.972;2023-02-01T00:52:48;96387.19;;;1.72;82.15
76478;BME280;65309;49.790;18.972;2023-02-01T00:57:50;96388.53;;;1.80;81.29
76478;BME280;65309;49.790;18.972;2023-02-01T01:02:52;96392.47;;;1.79;81.22
76478;BME280;65309;49.790;18.972;2023-02-01T01:07:56;96368.53;;;1.99;79.91
76478;BME280;65309;49.790;18.972;2023-02-01T01:12:58;96382.72;;;1.94;80.24
76478;BME280;65309;49.790;18.972;2023-02-01T01:18:00;96376.91;;;1.92;80.28
76478;BME280;65309;49.790;18.972;2023-02-01T01:23:04;96387.50;;;1.90;80.82
76478;BME280;65309;49.790;18.972;2023-02-01T01:28:07;96383.84;;;1.80;81.69
76478;BME280;65309;49.790;18.972;2023-02-01T01:33:09;96374.88;;;1.67;82.89
76478;BME280;65309;49.790;18.972;2023-02-01T01:38:12;96386.72;;;1.61;83.04
76478;BME280;65309;49.790;18.972;2023-02-01T01:43:17;96365.22;;;1.50;83.84
76478;BME280;65309;49.790;18.972;2023-02-01T01:48:24;96356.56;;;1.68;82.61
76478;BME280;65309;49.790;18.972;2023-02-01T01:53:31;96356.91;;;1.70;82.54
76478;BME280;65309;49.790;18.972;2023-02-01T01:58:35;96358.13;;;1.81;81.22
76478;BME280;65309;49.790;18.972;2023-02-01T02:03:39;96338.28;;;1.81;81.54
76478;BME280;65309;49.790;18.972;2023-02-01T02:08:44;96338.28;;;1.81;80.32
76478;BME280;65309;49.790;18.972;2023-02-01T02:13:49;96364.56;;;1.75;81.26
76478;BME280;65309;49.790;18.972;2023-02-01T02:18:59;96365.59;;;1.65;82.98
76478;BME280;65309;49.790;18.972;2023-02-01T02:24:26;96456.72;;;1.64;83.12
76478;BME280;65309;49.790;18.972;2023-02-01T02:29:59;96460.59;;;0.10;90.53
76478;BME280;65309;49.790;18.972;2023-02-01T02:35:09;96449.78;;;-0.13;92.49
76478;BME280;65309;49.790;18.972;2023-02-01T02:40:22;96458.66;;;-0.32;94.09
76478;BME280;65309;49.790;18.972;2023-02-01T02:45:34;96462.28;;;-0.39;94.20
76478;BME280;65309;49.790;18.972;2023-02-01T02:51:01;96476.72;;;-0.46;94.68
76478;BME280;65309;49.790;18.972;2023-02-01T02:56:26;96468.66;;;-0.49;94.93
76478;BME280;65309;49.790;18.972;2023-02-01T03:01:48;96469.09;;;-0.51;95.23
76478;BME280;65309;49.790;18.972;2023-02-01T03:07:42;96465.94;;;-0.49;96.02
76478;BME280;65309;49.790;18.972;2023-02-01T03:12:39;96466.78;;;-0.52;95.21
76478;BME280;65309;49.790;18.972;2023-02-01T03:18:00;96460.94;;;-0.51;95.14
76478;BME280;65309;49.790;18.972;2023-02-01T03:23:05;96457.78;;;-0.49;95.00
76478;BME280;65309;49.790;18.972;2023-02-01T03:28:09;96447.38;;;-0.31;93.36
76478;BME280;65309;49.790;18.972;2023-02-01T03:33:16;96441.13;;;-0.08;92.02
76478;BME280;65309;49.790;18.972;2023-02-01T03:38:30;96446.84;;;0.17;89.17
76478;BME280;65309;49.790;18.972;2023-02-01T03:43:36;96426.19;;;0.39;87.82
76478;BME280;65309;49.790;18.972;2023-02-01T03:48:41;96434.50;;;0.68;84.92
76478;BME280;65309;49.790;18.972;2023-02-01T03:53:46;96431.69;;;0.72;84.42
76478;BME280;65309;49.790;18.972;2023-02-01T03:58:50;96434.59;;;0.81;83.13
76478;BME280;65309;49.790;18.972;2023-02-01T04:04:00;96435.56;;;0.90;82.58
76478;BME280;65309;49.790;18.972;2023-02-01T04:09:04;96435.31;;;1.01;82.02
76478;BME280;65309;49.790;18.972;2023-02-01T04:14:06;96447.91;;;1.11;79.72
76478;BME280;65309;49.790;18.972;2023-02-01T04:19:08;96453.72;;;1.29;78.53
76478;BME280;65309;49.790;18.972;2023-02-01T04:24:11;96452.19;;;1.28;78.44
76478;BME280;65309;49.790;18.972;2023-02-01T04:29:13;96453.72;;;1.29;78.03
76478;BME280;65309;49.790;18.972;2023-02-01T04:34:15;96459.66;;;1.41;77.88
76478;BME280;65309;49.790;18.972;2023-02-01T04:39:19;96477.28;;;1.36;76.99
76478;BME280;65309;49.790;18.972;2023-02-01T04:44:21;96476.00;;;1.41;76.06
76478;BME280;65309;49.790;18.972;2023-02-01T04:49:23;96489.72;;;1.37;77.54
76478;BME280;65309;49.790;18.972;2023-02-01T04:54:28;96481.63;;;1.33;76.11
76478;BME280;65309;49.790;18.972;2023-02-01T04:59:30;96473.03;;;1.35;75.25
76478;BME280;65309;49.790;18.972;2023-02-01T05:04:32;96473.47;;;1.33;76.04
76478;BME280;65309;49.790;18.972;2023-02-01T05:09:36;96461.03;;;1.32;75.75
76478;BME280;65309;49.790;18.972;2023-02-01T05:14:37;96475.31;;;1.20;77.25
76478;BME280;65309;49.790;18.972;2023-02-01T05:19:39;96478.38;;;1.22;75.83
76478;BME280;65309;49.790;18.972;2023-02-01T05:24:43;96471.75;;;1.23;76.46
76478;BME280;65309;49.790;18.972;2023-02-01T05:29:45;96467.06;;;1.24;76.91
76478;BME280;65309;49.790;18.972;2023-02-01T05:34:47;96442.47;;;1.27;79.39
76478;BME280;65309;49.790;18.972;2023-02-01T05:39:50;96455.22;;;1.30;76.62
76478;BME280;65309;49.790;18.972;2023-02-01T05:44:52;96470.56;;;1.41;75.41
76478;BME280;65309;49.790;18.972;2023-02-01T05:49:54;96452.75;;;1.36;76.01
76478;BME280;65309;49.790;18.972;2023-02-01T05:54:57;96447.63;;;1.38;76.61
76478;BME280;65309;49.790;18.972;2023-02-01T05:59:59;96443.31;;;1.41;75.45
76478;BME280;65309;49.790;18.972;2023-02-01T06:05:02;96438.53;;;1.45;75.57
76478;BME280;65309;49.790;18.972;2023-02-01T06:10:06;96441.44;;;1.54;73.72
76478;BME280;65309;49.790;18.972;2023-02-01T06:15:09;96425.06;;;1.54;74.59
76478;BME280;65309;49.790;18.972;2023-02-01T06:20:13;96433.94;;;1.58;75.31
76478;BME280;65309;49.790;18.972;2023-02-01T06:25:17;96430.19;;;1.52;77.03
76478;BME280;65309;49.790;18.972;2023-02-01T06:30:19;96429.00;;;1.53;76.23
76478;BME280;65309;49.790;18.972;2023-02-01T06:35:21;96435.13;;;1.57;78.02
76478;BME280;65309;49.790;18.972;2023-02-01T06:40:25;96452.31;;;1.54;76.93
76478;BME280;65309;49.790;18.972;2023-02-01T06:45:27;96437.66;;;1.64;76.00
76478;BME280;65309;49.790;18.972;2023-02-01T06:50:29;96442.69;;;1.65;75.92
76478;BME280;65309;49.790;18.972;2023-02-01T06:55:32;96427.66;;;1.73;74.64
76478;BME280;65309;49.790;18.972;2023-02-01T07:00:34;96415.69;;;1.71;74.28
76478;BME280;65309;49.790;18.972;2023-02-01T07:05:36;96417.81;;;1.63;74.22
76478;BME280;65309;49.790;18.972;2023-02-01T07:10:40;96404.44;;;1.69;75.85
76478;BME280;65309;49.790;18.972;2023-02-01T07:15:42;96408.94;;;1.59;75.41
76478;BME280;65309;49.790;18.972;2023-02-01T07:20:49;96387.41;;;1.65;74.51
76478;BME280;65309;49.790;18.972;2023-02-01T07:25:55;96409.72;;;1.60;74.78
76478;BME280;65309;49.790;18.972;2023-02-01T07:31:02;96409.88;;;1.69;76.25
76478;BME280;65309;49.790;18.972;2023-02-01T07:36:06;96415.06;;;1.79;76.33
76478;BME280;65309;49.790;18.972;2023-02-01T07:41:11;96417.53;;;1.74;75.01
76478;BME280;65309;49.790;18.972;2023-02-01T07:46:13;96416.66;;;1.77;75.19
76478;BME280;65309;49.790;18.972;2023-02-01T07:51:17;96430.81;;;1.72;75.39
76478;BME280;65309;49.790;18.972;2023-02-01T07:56:21;96434.47;;;1.81;75.39
76478;BME280;65309;49.790;18.972;2023-02-01T08:01:26;96425.00;;;1.86;74.54
76478;BME280;65309;49.790;18.972;2023-02-01T08:06:30;96419.97;;;1.84;75.51
76478;BME280;65309;49.790;18.972;2023-02-01T08:11:34;96432.81;;;2.00;75.79
76478;BME280;65309;49.790;18.972;2023-02-01T08:16:38;96420.50;;;2.08;75.54
76478;BME280;65309;49.790;18.972;2023-02-01T08:21:41;96438.59;;;2.02;75.23
76478;BME280;65309;49.790;18.972;2023-02-01T08:26:44;96432.50;;;2.11;74.95
76478;BME280;65309;49.790;18.972;2023-02-01T08:31:46;96410.59;;;2.27;72.25
76478;BME280;65309;49.790;18.972;2023-02-01T08:36:48;96425.91;;;2.37;72.74
76478;BME280;65309;49.790;18.972;2023-02-01T08:41:52;96411.81;;;2.39;72.01
76478;BME280;65309;49.790;18.972;2023-02-01T08:47:12;96414.59;;;2.64;74.17
76478;BME280;65309;49.790;18.972;2023-02-01T08:52:15;96415.06;;;2.75;70.82
76478;BME280;65309;49.790;18.972;2023-02-01T08:57:18;96411.09;;;2.76;71.74
76478;BME280;65309;49.790;18.972;2023-02-01T09:02:20;96412.06;;;2.57;71.73
76478;BME280;65309;49.790;18.972;2023-02-01T09:07:22;96410.09;;;2.45;72.05
76478;BME280;65309;49.790;18.972;2023-02-01T09:12:26;96396.78;;;2.47;74.24
76478;BME280;65309;49.790;18.972;2023-02-01T09:17:29;96404.38;;;2.26;72.03
76478;BME280;65309;49.790;18.972;2023-02-01T09:22:31;96412.47;;;2.30;72.28
76478;BME280;65309;49.790;18.972;2023-02-01T09:27:35;96383.22;;;2.30;72.00
76478;BME280;65309;49.790;18.972;2023-02-01T09:32:37;96394.13;;;2.30;73.09
76478;BME280;65309;49.790;18.972;2023-02-01T09:37:39;96389.44;;;2.31;74.01
76478;BME280;65309;49.790;18.972;2023-02-01T09:42:57;96396.31;;;2.36;75.38
76478;BME280;65309;49.790;18.972;2023-02-01T09:48:10;96406.88;;;2.08;76.41
76478;BME280;65309;49.790;18.972;2023-02-01T09:53:18;96403.06;;;2.18;76.99
76478;BME280;65309;49.790;18.972;2023-02-01T09:58:27;96406.97;;;2.17;77.48
76478;BME280;65309;49.790;18.972;2023-02-01T10:03:33;96394.28;;;1.98;80.17
76478;BME280;65309;49.790;18.972;2023-02-01T10:08:51;96391.44;;;2.02;78.23
76478;BME280;65309;49.790;18.972;2023-02-01T10:14:02;96387.34;;;2.22;76.66
76478;BME280;65309;49.790;18.972;2023-02-01T10:19:35;96384.25;;;2.49;74.94
76478;BME280;65309;49.790;18.972;2023-02-01T10:24:45;96375.59;;;2.51;74.87
76478;BME280;65309;49.790;18.972;2023-02-01T10:29:54;96373.53;;;2.55;73.46
76478;BME280;65309;49.790;18.972;2023-02-01T10:34:58;96365.25;;;2.46;73.27
76478;BME280;65309;49.790;18.972;2023-02-01T10:40:10;96339.22;;;2.92;71.93
76478;BME280;65309;49.790;18.972;2023-02-01T10:45:16;96337.94;;;2.71;70.25
76478;BME280;65309;49.790;18.972;2023-02-01T10:50:30;96342.09;;;2.75;70.35
76478;BME280;65309;49.790;18.972;2023-02-01T10:55:38;96340.44;;;2.78;71.21
76478;BME280;65309;49.790;18.972;2023-02-01T11:00:46;96336.53;;;2.79;70.79
76478;BME280;65309;49.790;18.972;2023-02-01T11:05:49;96324.81;;;2.78;70.54
76478;BME280;65309;49.790;18.972;2023-02-01T11:10:58;96322.63;;;2.86;70.64
76478;BME280;65309;49.790;18.972;2023-02-01T11:16:03;96304.25;;;2.99;71.24
76478;BME280;65309;49.790;18.972;2023-02-01T11:21:08;96314.19;;;2.93;71.43
76478;BME280;65309;49.790;18.972;2023-02-01T11:26:13;96312.72;;;2.67;72.56
76478;BME280;65309;49.790;18.972;2023-02-01T11:31:18;96302.75;;;2.73;71.94
76478;BME280;65309;49.790;18.972;2023-02-01T11:36:23;96305.72;;;2.66;73.43
76478;BME280;65309;49.790;18.972;2023-02-01T11:41:28;96291.53;;;2.71;73.18
76478;BME280;65309;49.790;18.972;2023-02-01T11:46:32;96279.75;;;2.49;73.25
76478;BME280;65309;49.790;18.972;2023-02-01T11:51:44;96288.47;;;2.69;73.14
76478;BME280;65309;49.790;18.972;2023-02-01T11:57:00;96295.06;;;2.46;75.16
76478;BME280;65309;49.790;18.972;2023-02-01T12:02:35;96278.56;;;2.50;75.33
76478;BME280;65309;49.790;18.972;2023-02-01T12:07:50;96286.28;;;2.64;74.56
76478;BME280;65309;49.790;18.972;2023-02-01T12:13:05;96256.81;;;2.59;73.41
76478;BME280;65309;49.790;18.972;2023-02-01T12:18:27;96267.41;;;2.44;73.38
76478;BME280;65309;49.790;18.972;2023-02-01T12:23:45;96262.19;;;2.50;73.28
76478;BME280;65309;49.790;18.972;2023-02-01T12:29:11;96248.41;;;2.53;73.90
76478;BME280;65309;49.790;18.972;2023-02-01T12:40:06;96252.75;;;2.63;74.85
76478;BME280;65309;49.790;18.972;2023-02-01T12:45:23;96246.69;;;2.34;76.14
76478;BME280;65309;49.790;18.972;2023-02-01T12:50:28;96237.31;;;2.22;77.11
76478;BME280;65309;49.790;18.972;2023-02-01T12:55:38;96244.19;;;2.14;78.41
76478;BME280;65309;49.790;18.972;2023-02-01T13:00:45;96231.66;;;1.92;80.17
76478;BME280;65309;49.790;18.972;2023-02-01T13:05:51;96242.84;;;1.81;81.53
76478;BME280;65309;49.790;18.972;2023-02-01T13:11:00;96235.88;;;2.05;80.40
76478;BME280;65309;49.790;18.972;2023-02-01T13:16:10;96224.97;;;2.05;80.89
76478;BME280;65309;49.790;18.972;2023-02-01T13:21:15;96226.09;;;1.95;82.71
76478;BME280;65309;49.790;18.972;2023-02-01T13:26:20;96235.56;;;2.03;80.62
76478;BME280;65309;49.790;18.972;2023-02-01T13:31:52;96218.00;;;2.29;79.67
76478;BME280;65309;49.790;18.972;2023-02-01T13:37:08;96219.09;;;2.19;79.69
76478;BME280;65309;49.790;18.972;2023-02-01T13:42:19;96208.50;;;2.09;80.42
76478;BME280;65309;49.790;18.972;2023-02-01T13:47:26;96204.78;;;2.28;78.66
76478;BME280;65309;49.790;18.972;2023-02-01T13:52:37;96193.75;;;2.31;78.94
76478;BME280;65309;49.790;18.972;2023-02-01T13:57:42;96195.50;;;2.25;78.16
76478;BME280;65309;49.790;18.972;2023-02-01T14:03:07;96197.28;;;1.94;79.54
76478;BME280;65309;49.790;18.972;2023-02-01T14:08:11;96201.66;;;1.92;81.40
76478;BME280;65309;49.790;18.972;2023-02-01T14:13:26;96204.69;;;1.68;82.82
76478;BME280;65309;49.790;18.972;2023-02-01T14:19:00;96195.50;;;1.50;84.04
76478;BME280;65309;49.790;18.972;2023-02-01T14:24:16;96195.84;;;1.52;85.49
76478;BME280;65309;49.790;18.972;2023-02-01T14:29:26;96207.69;;;1.32;85.59
76478;BME280;65309;49.790;18.972;2023-02-01T14:34:39;96211.59;;;1.31;86.02
76478;BME280;65309;49.790;18.972;2023-02-01T14:39:53;96209.22;;;1.33;85.80
76478;BME280;65309;49.790;18.972;2023-02-01T14:50:36;96231.97;;;1.27;87.49
76478;BME280;65309;49.790;18.972;2023-02-01T14:55:44;96241.47;;;1.06;88.38
76478;BME280;65309;49.790;18.972;2023-02-01T15:00:52;96246.09;;;0.93;89.26
76478;BME280;65309;49.790;18.972;2023-02-01T15:05:56;96243.78;;;1.08;88.65
76478;BME280;65309;49.790;18.972;2023-02-01T15:11:02;96248.78;;;1.09;88.38
76478;BME280;65309;49.790;18.972;2023-02-01T15:16:10;96252.88;;;1.30;87.42
76478;BME280;65309;49.790;18.972;2023-02-01T15:21:20;96255.19;;;1.31;86.64
76478;BME280;65309;49.790;18.972;2023-02-01T15:26:32;96257.38;;;1.36;86.80
76478;BME280;65309;49.790;18.972;2023-02-01T15:31:36;96255.63;;;1.43;85.42
76478;BME280;65309;49.790;18.972;2023-02-01T15:36:40;96245.00;;;1.61;84.60
76478;BME280;65309;49.790;18.972;2023-02-01T15:41:55;96267.59;;;1.61;84.08
76478;BME280;65309;49.790;18.972;2023-02-01T15:46:58;96254.28;;;1.63;83.87
76478;BME280;65309;49.790;18.972;2023-02-01T15:52:03;96265.00;;;1.70;82.97
76478;BME280;65309;49.790;18.972;2023-02-01T15:57:19;96280.91;;;1.72;83.07
76478;BME280;65309;49.790;18.972;2023-02-01T16:02:27;96280.38;;;1.77;81.70
76478;BME280;65309;49.790;18.972;2023-02-01T16:07:33;96305.25;;;1.79;82.53
76478;BME280;65309;49.790;18.972;2023-02-01T16:12:46;96303.44;;;1.60;83.11
76478;BME280;65309;49.790;18.972;2023-02-01T16:17:49;96317.56;;;1.71;81.85
76478;BME280;65309;49.790;18.972;2023-02-01T16:22:52;96315.69;;;1.80;80.69
76478;BME280;65309;49.790;18.972;2023-02-01T16:27:55;96319.94;;;1.69;81.65
76478;BME280;65309;49.790;18.972;2023-02-01T16:32:58;96330.50;;;1.67;81.12
76478;BME280;65309;49.790;18.972;2023-02-01T16:38:02;96304.78;;;1.80;80.60
76478;BME280;65309;49.790;18.972;2023-02-01T16:43:05;96320.63;;;1.85;80.06
76478;BME280;65309;49.790;18.972;2023-02-01T16:48:17;96310.47;;;1.86;79.71
76478;BME280;65309;49.790;18.972;2023-02-01T16:53:23;96306.34;;;1.94;78.67
76478;BME280;65309;49.790;18.972;2023-02-01T16:58:26;96298.31;;;2.03;77.93
76478;BME280;65309;49.790;18.972;2023-02-01T17:03:28;96294.69;;;1.94;78.06
76478;BME280;65309;49.790;18.972;2023-02-01T17:08:35;96307.41;;;1.84;78.78
76478;BME280;65309;49.790;18.972;2023-02-01T17:13:37;96309.88;;;2.07;78.45
76478;BME280;65309;49.790;18.972;2023-02-01T17:18:39;96305.84;;;2.12;76.81
76478;BME280;65309;49.790;18.972;2023-02-01T17:23:43;96314.56;;;2.07;77.38
76478;BME280;65309;49.790;18.972;2023-02-01T17:28:45;96308.88;;;2.14;76.68
76478;BME280;65309;49.790;18.972;2023-02-01T17:33:47;96312.72;;;2.16;75.80
76478;BME280;65309;49.790;18.972;2023-02-01T17:38:50;96292.97;;;2.00;76.08
76478;BME280;65309;49.790;18.972;2023-02-01T17:44:08;96290.78;;;2.07;75.49
76478;BME280;65309;49.790;18.972;2023-02-01T17:49:11;96294.81;;;2.15;75.73
76478;BME280;65309;49.790;18.972;2023-02-01T17:54:15;96303.22;;;2.08;75.74
76478;BME280;65309;49.790;18.972;2023-02-01T17:59:18;96290.66;;;2.11;76.03
76478;BME280;65309;49.790;18.972;2023-02-01T18:04:20;96279.34;;;2.12;75.25
76478;BME280;65309;49.790;18.972;2023-02-01T18:09:24;96283.56;;;2.01;76.61
76478;BME280;65309;49.790;18.972;2023-02-01T18:14:26;96272.56;;;2.04;76.78
76478;BME280;65309;49.790;18.972;2023-02-01T18:19:28;96284.31;;;2.01;78.06
76478;BME280;65309;49.790;18.972;2023-02-01T18:24:32;96291.63;;;1.92;79.14
76478;BME280;65309;49.790;18.972;2023-02-01T18:29:35;96288.13;;;1.78;80.28
76478;BME280;65309;49.790;18.972;2023-02-01T18:34:37;96286.03;;;1.70;80.57
76478;BME280;65309;49.790;18.972;2023-02-01T18:39:41;96274.78;;;1.68;81.04
76478;BME280;65309;49.790;18.972;2023-02-01T18:44:43;96262.06;;;1.90;79.18
76478;BME280;65309;49.790;18.972;2023-02-01T18:49:45;96250.50;;;1.99;79.58
76478;BME280;65309;49.790;18.972;2023-02-01T18:54:48;96243.09;;;1.99;79.02
76478;BME280;65309;49.790;18.972;2023-02-01T19:00:00;96228.34;;;2.09;78.74
76478;BME280;65309;49.790;18.972;2023-02-01T19:05:02;96235.47;;;2.07;77.88
76478;BME280;65309;49.790;18.972;2023-02-01T19:10:12;96228.16;;;2.16;76.98
76478;BME280;65309;49.790;18.972;2023-02-01T19:15:14;96204.47;;;2.13;77.27
76478;BME280;65309;49.790;18.972;2023-02-01T19:20:19;96203.16;;;2.05;77.48
76478;BME280;65309;49.790;18.972;2023-02-01T19:25:25;96191.72;;;2.10;76.68
76478;BME280;65309;49.790;18.972;2023-02-01T19:30:28;96187.91;;;2.20;76.19
76478;BME280;65309;49.790;18.972;2023-02-01T19:35:31;96189.88;;;2.07;76.63
76478;BME280;65309;49.790;18.972;2023-02-01T19:40:36;96196.63;;;2.15;76.57
76478;BME280;65309;49.790;18.972;2023-02-01T19:45:39;96182.44;;;2.20;76.18
76478;BME280;65309;49.790;18.972;2023-02-01T19:50:41;96178.06;;;2.10;76.80
76478;BME280;65309;49.790;18.972;2023-02-01T19:55:45;96183.22;;;2.08;76.57
76478;BME280;65309;49.790;18.972;2023-02-01T20:00:51;96165.63;;;2.09;77.44
76478;BME280;65309;49.790;18.972;2023-02-01T20:05:54;96171.09;;;2.09;77.32
76478;BME280;65309;49.790;18.972;2023-02-01T20:10:58;96177.66;;;1.99;77.99
76478;BME280;65309;49.790;18.972;2023-02-01T20:16:00;96160.53;;;1.99;79.00
76478;BME280;65309;49.790;18.972;2023-02-01T20:21:03;96120.69;;;2.01;77.59
76478;BME280;65309;49.790;18.972;2023-02-01T20:26:09;96130.81;;;2.13;76.93
76478;BME280;65309;49.790;18.972;2023-02-01T20:31:12;96124.81;;;2.18;74.72
76478;BME280;65309;49.790;18.972;2023-02-01T20:36:16;96121.75;;;2.29;74.58
76478;BME280;65309;49.790;18.972;2023-02-01T20:41:20;96121.28;;;2.30;74.04
76478;BME280;65309;49.790;18.972;2023-02-01T20:46:22;96111.09;;;2.44;73.51
76478;BME280;65309;49.790;18.972;2023-02-01T20:51:24;96129.22;;;2.03;77.42
76478;BME280;65309;49.790;18.972;2023-02-01T20:56:28;96119.22;;;1.50;83.15
76478;BME280;65309;49.790;18.972;2023-02-01T21:01:30;96096.66;;;1.36;85.42
76478;BME280;65309;49.790;18.972;2023-02-01T21:06:32;96118.09;;;1.34;84.40
76478;BME280;65309;49.790;18.972;2023-02-01T21:11:35;96092.50;;;1.32;84.87
76478;BME280;65309;49.790;18.972;2023-02-01T21:16:37;96081.72;;;1.54;83.68
76478;BME280;65309;49.790;18.972;2023-02-01T21:21:40;96081.06;;;1.75;81.51
76478;BME280;65309;49.790;18.972;2023-02-01T21:26:44;96075.94;;;1.64;82.96
76478;BME280;65309;49.790;18.972;2023-02-01T21:31:46;96079.75;;;1.67;82.52
76478;BME280;65309;49.790;18.972;2023-02-01T21:36:48;96047.47;;;1.78;81.32
76478;BME280;65309;49.790;18.972;2023-02-01T21:41:51;96069.38;;;1.74;80.99
76478;BME280;65309;49.790;18.972;2023-02-01T21:47:13;96076.13;;;1.82;80.77
76478;BME280;65309;49.790;18.972;2023-02-01T21:52:18;96089.31;;;1.71;82.15
76478;BME280;65309;49.790;18.972;2023-02-01T21:57:21;96081.06;;;1.75;81.89
76478;BME280;65309;49.790;18.972;2023-02-01T22:02:23;96089.03;;;1.44;83.78
76478;BME280;65309;49.790;18.972;2023-02-01T22:07:25;96093.16;;;1.49;85.53
76478;BME280;65309;49.790;18.972;2023-02-01T22:12:29;96081.19;;;1.33;85.16
76478;BME280;65309;49.790;18.972;2023-02-01T22:17:31;96098.19;;;1.37;85.10
76478;BME280;65309;49.790;18.972;2023-02-01T22:22:33;96085.09;;;1.45;84.33
76478;BME280;65309;49.790;18.972;2023-02-01T22:27:36;96092.94;;;1.56;83.55
76478;BME280;65309;49.790;18.972;2023-02-01T22:32:58;96087.06;;;1.57;82.85
76478;BME280;65309;49.790;18.972;2023-02-01T22:38:00;96082.91;;;1.65;81.90
76478;BME280;65309;49.790;18.972;2023-02-01T22:43:03;96077.69;;;1.58;81.96
76478;BME280;65309;49.790;18.972;2023-02-01T22:48:06;96092.28;;;1.77;79.92
76478;BME280;65309;49.790;18.972;2023-02-01T22:53:08;96097.72;;;1.77;79.70
76478;BME280;65309;49.790;18.972;2023-02-01T22:58:11;96079.84;;;1.76;78.86
76478;BME280;65309;49.790;18.972;2023-02-01T23:03:13;96075.03;;;1.80;77.86
76478;BME280;65309;49.790;18.972;2023-02-01T23:08:15;96072.31;;;1.80;77.76
76478;BME280;65309;49.790;18.972;2023-02-01T23:13:19;96093.47;;;1.76;76.60
76478;BME280;65309;49.790;18.972;2023-02-01T23:18:21;96098.94;;;1.38;80.22
76478;BME280;65309;49.790;18.972;2023-02-01T23:23:24;96091.56;;;0.84;85.33
76478;BME280;65309;49.790;18.972;2023-02-01T23:28:29;96110.97;;;0.58;87.22
76478;BME280;65309;49.790;18.972;2023-02-01T23:33:31;96125.81;;;0.40;89.34
76478;BME280;65309;49.790;18.972;2023-02-01T23:38:33;96122.97;;;0.15;90.32
76478;BME280;65309;49.790;18.972;2023-02-01T23:43:37;96127.28;;;0.13;91.17
76478;BME280;65309;49.790;18.972;2023-02-01T23:48:58;96128.75;;;0.01;92.27
76478;BME280;65309;49.790;18.972;2023-02-01T23:54:01;96127.88;;;-0.12;92.93
76478;BME280;65309;49.790;18.972;2023-02-01T23:59:10;96125.34;;;-0.19;94.05
